Time;durP1;ratioP1;P1;durP2;ratioP2;P2;SDS_P1;SDS_P2;PMS_P1;PMS_P2;Temp;Humidity;BMP_temperature;BMP_pressure;BME280_temperature;BME280_humidity;BME280_pressure;Samples;Min_cycle;Max_cycle;Signal;HPM_P1;HPM_P2
2024/01/23 00:00:44;;;;;;;19.87;4.73;;;;;;;5.45;100.00;100435.44;5052774;28;20210;-67
2024/01/23 00:03:15;;;;;;;16.53;4.47;;;;;;;5.45;100.00;100448.72;5052618;28;20260;-67
2024/01/23 00:05:44;;;;;;;19.77;5.27;;;;;;;5.44;100.00;100451.53;5053737;28;20190;-67
2024/01/23 00:08:12;;;;;;;18.83;4.73;;;;;;;5.41;100.00;100463.22;5056393;28;20270;-68
2024/01/23 00:10:40;;;;;;;20.30;5.03;;;;;;;5.44;100.00;100460.34;5056321;28;20296;-68
2024/01/23 00:13:09;;;;;;;21.37;5.40;;;;;;;5.43;100.00;100458.66;5056214;28;20317;-68
2024/01/23 00:15:37;;;;;;;25.87;5.30;;;;;;;5.44;100.00;100455.03;5055973;28;20680;-68
2024/01/23 00:18:07;;;;;;;29.10;5.80;;;;;;;5.42;100.00;100456.97;5056166;28;20572;-68
2024/01/23 00:20:37;;;;;;;17.83;5.10;;;;;;;5.41;100.00;100465.88;5056390;28;20206;-67
2024/01/23 00:23:06;;;;;;;22.80;5.17;;;;;;;5.43;100.00;100466.63;5055974;28;20226;-67
2024/01/23 00:25:34;;;;;;;22.17;4.70;;;;;;;5.45;100.00;100469.97;5056296;28;20202;-67
2024/01/23 00:28:04;;;;;;;16.20;4.73;;;;;;;5.46;100.00;100470.81;5056028;28;20227;-67
2024/01/23 00:30:32;;;;;;;21.93;5.93;;;;;;;5.44;100.00;100460.34;5055697;28;20305;-67
2024/01/23 00:33:01;;;;;;;20.27;4.60;;;;;;;5.46;100.00;100457.53;5055816;28;20696;-68
2024/01/23 00:35:29;;;;;;;23.40;5.23;;;;;;;5.46;100.00;100473.47;5055448;28;20597;-68
2024/01/23 00:37:59;;;;;;;24.57;4.70;;;;;;;5.45;100.00;100464.66;5055831;28;20293;-68
2024/01/23 00:40:27;;;;;;;19.93;4.80;;;;;;;5.45;100.00;100471.78;5055492;28;20698;-67
2024/01/23 00:42:56;;;;;;;16.00;4.17;;;;;;;5.47;100.00;100470.69;5055867;28;20320;-67
2024/01/23 00:45:24;;;;;;;18.93;4.97;;;;;;;5.50;100.00;100475.72;5055383;28;20206;-67
2024/01/23 00:47:53;;;;;;;20.23;5.13;;;;;;;5.51;100.00;100472.06;5055663;28;20217;-67
2024/01/23 00:50:22;;;;;;;20.63;4.90;;;;;;;5.54;100.00;100469.19;5055623;28;20205;-67
2024/01/23 00:52:50;;;;;;;22.73;5.00;;;;;;;5.52;100.00;100478.22;5055506;28;20218;-67
2024/01/23 00:55:20;;;;;;;17.83;4.97;;;;;;;5.50;100.00;100486.34;5055234;28;20297;-67
2024/01/23 00:57:48;;;;;;;19.63;5.23;;;;;;;5.51;100.00;100480.03;5055540;28;20216;-67
2024/01/23 01:00:17;;;;;;;19.80;4.90;;;;;;;5.49;100.00;100479.34;5055119;28;20662;-67
2024/01/23 01:02:46;;;;;;;16.43;4.77;;;;;;;5.49;100.00;100479.34;5055207;28;20226;-67
2024/01/23 01:05:14;;;;;;;15.17;3.93;;;;;;;5.51;100.00;100488.00;5055353;28;20575;-67
2024/01/23 01:07:43;;;;;;;20.07;4.83;;;;;;;5.55;100.00;100493.88;5055300;28;20210;-67
2024/01/23 01:10:12;;;;;;;15.97;4.60;;;;;;;5.55;100.00;100508.00;5055284;28;20638;-67
2024/01/23 01:12:42;;;;;;;21.87;4.50;;;;;;;5.57;100.00;100506.09;5054995;28;20217;-67
2024/01/23 01:15:11;;;;;;;16.47;3.77;;;;;;;5.58;100.00;100510.41;5055161;28;20256;-67
2024/01/23 01:17:40;;;;;;;15.90;3.90;;;;;;;5.58;100.00;100515.72;5054231;28;20664;-67
2024/01/23 01:20:09;;;;;;;18.10;4.07;;;;;;;5.57;100.00;100513.19;5055071;28;20202;-67
2024/01/23 01:22:39;;;;;;;17.13;3.77;;;;;;;5.55;100.00;100521.28;5055097;28;20321;-67
2024/01/23 01:25:08;;;;;;;18.73;3.50;;;;;;;5.54;100.00;100526.75;5054966;28;20297;-68
2024/01/23 01:27:37;;;;;;;15.60;3.80;;;;;;;5.54;100.00;100527.59;5054929;28;20293;-68
2024/01/23 01:30:08;;;;;;;18.37;3.83;;;;;;;5.54;100.00;100540.88;5054553;28;20210;-68
2024/01/23 01:32:37;;;;;;;14.00;3.93;;;;;;;5.53;100.00;100533.88;5054782;28;20274;-68
2024/01/23 01:35:06;;;;;;;16.03;3.90;;;;;;;5.54;100.00;100546.19;5054740;28;20214;-68
2024/01/23 01:37:35;;;;;;;17.80;4.03;;;;;;;5.53;100.00;100539.19;5054745;28;20241;-68
2024/01/23 01:40:04;;;;;;;14.93;3.40;;;;;;;5.52;100.00;100555.22;5054377;28;20771;-68
2024/01/23 01:42:33;;;;;;;20.83;4.00;;;;;;;5.51;100.00;100556.22;5054488;28;20313;-68
2024/01/23 01:45:03;;;;;;;17.83;4.03;;;;;;;5.50;100.00;100543.91;5054574;28;20206;-68
2024/01/23 01:47:32;;;;;;;16.73;3.90;;;;;;;5.51;100.00;100546.41;5054565;28;20214;-68
2024/01/23 01:50:02;;;;;;;18.40;4.17;;;;;;;5.51;100.00;100551.72;5054471;28;20252;-68
2024/01/23 01:52:32;;;;;;;17.57;3.70;;;;;;;5.51;100.00;100556.22;5054373;28;20286;-68
2024/01/23 01:55:00;;;;;;;16.40;3.80;;;;;;;5.52;100.00;100556.06;5054418;28;20202;-68
2024/01/23 01:57:31;;;;;;;18.47;3.83;;;;;;;5.51;100.00;100566.84;5054381;28;20202;-68
2024/01/23 02:00:00;;;;;;;17.03;3.73;;;;;;;5.53;100.00;100575.50;5054294;28;20273;-68
2024/01/23 02:02:29;;;;;;;12.00;3.10;;;;;;;5.52;100.00;100573.81;5053837;28;20626;-68
2024/01/23 02:04:58;;;;;;;13.87;4.00;;;;;;;5.51;100.00;100580.94;5054442;28;20297;-68
2024/01/23 02:07:28;;;;;;;13.77;3.30;;;;;;;5.52;100.00;100566.69;5054150;28;20195;-68
2024/01/23 02:09:57;;;;;;;15.77;3.17;;;;;;;5.54;100.00;100582.50;5054125;28;20601;-68
2024/01/23 02:12:26;;;;;;;14.53;3.40;;;;;;;5.54;100.00;100587.81;5053995;28;20210;-68
2024/01/23 02:14:55;;;;;;;11.97;3.80;;;;;;;5.56;100.00;100604.47;5053975;28;20206;-68
2024/01/23 02:17:23;;;;;;;12.87;3.07;;;;;;;5.57;100.00;100612.31;5053998;28;20209;-68
2024/01/23 02:19:52;;;;;;;14.30;3.30;;;;;;;5.58;100.00;100607.84;5053922;28;20206;-68
2024/01/23 02:22:22;;;;;;;16.17;3.53;;;;;;;5.60;100.00;100611.19;5053838;28;20214;-68
2024/01/23 02:24:51;;;;;;;13.00;3.23;;;;;;;5.59;100.00;100607.69;5053864;28;20259;-68
2024/01/23 02:27:20;;;;;;;17.43;3.50;;;;;;;5.58;100.00;100610.50;5053815;28;20206;-68
2024/01/23 02:29:48;;;;;;;16.80;3.60;;;;;;;5.61;98.64;100613.72;5052934;28;20283;-68
2024/01/23 02:32:17;;;;;;;15.03;3.43;;;;;;;5.62;98.47;100606.56;5053787;28;20571;-68
2024/01/23 02:34:45;;;;;;;12.10;3.27;;;;;;;5.65;97.63;100611.63;5053452;28;20234;-68
2024/01/23 02:37:14;;;;;;;16.20;3.60;;;;;;;5.65;97.42;100611.63;5053366;28;20676;-68
2024/01/23 02:39:42;;;;;;;12.60;3.30;;;;;;;5.64;97.98;100625.91;5053651;28;20229;-68
2024/01/23 02:42:12;;;;;;;16.70;3.73;;;;;;;5.65;97.68;100616.94;5053604;28;20301;-68
2024/01/23 02:44:45;;;;;;;19.20;3.50;;;;;;;5.66;97.18;100634.56;5053084;28;20695;-68
2024/01/23 02:47:14;;;;;;;12.23;3.30;;;;;;;5.62;98.00;100633.97;5053571;28;20187;-68
2024/01/23 02:49:42;;;;;;;13.10;3.63;;;;;;;5.61;98.34;100621.69;5053523;28;20285;-68
2024/01/23 02:52:11;;;;;;;19.53;4.13;;;;;;;5.59;99.27;100628.94;5053500;28;20202;-68
2024/01/23 02:54:39;;;;;;;16.93;3.43;;;;;;;5.60;99.22;100630.63;5053104;28;20309;-68
2024/01/23 02:57:08;;;;;;;18.77;4.20;;;;;;;5.62;98.89;100633.97;5053431;28;20206;-68
2024/01/23 02:59:38;;;;;;;12.80;3.73;;;;;;;5.63;98.68;100635.66;5053350;28;20663;-68
2024/01/23 03:02:06;;;;;;;16.87;3.80;;;;;;;5.62;99.16;100633.97;5053361;28;20212;-68
2024/01/23 03:04:35;;;;;;;19.23;3.83;;;;;;;5.63;98.62;100643.63;5052928;28;20237;-68
2024/01/23 03:07:03;;;;;;;17.93;3.70;;;;;;;5.65;98.12;100642.69;5053342;28;20264;-68
2024/01/23 03:09:32;;;;;;;14.57;3.60;;;;;;;5.67;97.34;100643.38;5053277;28;20677;-68
2024/01/23 03:12:04;;;;;;;14.90;3.70;;;;;;;5.69;96.26;100646.72;5053257;28;20206;-68
2024/01/23 03:14:33;;;;;;;15.33;3.07;;;;;;;5.67;96.41;100654.00;5053208;28;20229;-68
2024/01/23 03:17:03;;;;;;;20.43;3.50;;;;;;;5.63;96.84;100678.16;5053302;28;20202;-68
2024/01/23 03:19:32;;;;;;;19.60;4.00;;;;;;;5.60;96.20;100682.91;5053267;28;20190;-68
2024/01/23 03:22:01;;;;;;;13.00;3.40;;;;;;;5.60;95.59;100693.53;5053212;28;20236;-68
2024/01/23 03:24:29;;;;;;;18.57;3.37;;;;;;;5.60;94.79;100698.84;5053300;28;20229;-68
2024/01/23 03:26:58;;;;;;;16.97;3.33;;;;;;;5.57;95.78;100693.78;5053377;28;20316;-68
2024/01/23 03:29:28;;;;;;;13.43;3.53;;;;;;;5.58;93.98;100701.59;5052803;28;20685;-68
2024/01/23 03:31:56;;;;;;;19.13;3.93;;;;;;;5.59;94.36;100703.28;5053135;28;20291;-68
2024/01/23 03:34:26;;;;;;;19.53;3.73;;;;;;;5.60;94.16;100702.34;5052909;28;20309;-68
2024/01/23 03:36:55;;;;;;;12.10;3.33;;;;;;;5.59;94.14;100713.06;5053129;28;20204;-68
2024/01/23 03:39:23;;;;;;;18.50;4.00;;;;;;;5.62;92.94;100724.28;5052741;28;20703;-68
2024/01/23 03:41:52;;;;;;;16.73;3.47;;;;;;;5.57;93.38;100718.53;5055846;28;20210;-68
2024/01/23 03:44:21;;;;;;;17.80;3.60;;;;;;;5.55;92.37;100720.44;5056452;28;20699;-68
2024/01/23 03:46:49;;;;;;;13.20;3.50;;;;;;;5.55;92.65;100723.09;5056837;28;20202;-68
2024/01/23 03:49:17;;;;;;;16.00;3.83;;;;;;;5.53;92.93;100727.72;5056828;28;20293;-68
2024/01/23 03:51:47;;;;;;;15.03;3.50;;;;;;;5.54;91.81;100737.38;5056746;28;20210;-68
2024/01/23 03:54:16;;;;;;;11.43;3.23;;;;;;;5.55;91.59;100722.25;5056290;28;20766;-68
2024/01/23 03:56:45;;;;;;;16.50;3.30;;;;;;;5.51;91.25;100719.03;5056625;28;20206;-68
2024/01/23 03:59:13;;;;;;;13.67;3.53;;;;;;;5.49;91.20;100734.25;5056604;28;20212;-68
2024/01/23 04:01:42;;;;;;;14.90;2.80;;;;;;;5.46;90.80;100741.63;5056781;28;20210;-68
2024/01/23 04:04:10;;;;;;;15.37;3.50;;;;;;;5.48;90.31;100747.66;5056062;28;20749;-68
2024/01/23 04:06:39;;;;;;;14.20;3.33;;;;;;;5.49;89.52;100760.81;5056753;28;20206;-68
2024/01/23 04:09:09;;;;;;;12.50;3.37;;;;;;;5.48;90.25;100761.75;5056388;28;20241;-68
2024/01/23 04:11:37;;;;;;;14.90;3.40;;;;;;;5.46;90.62;100757.56;5056331;28;20210;-68
2024/01/23 04:14:06;;;;;;;13.07;3.00;;;;;;;5.47;90.21;100757.44;5056305;28;20313;-68
2024/01/23 04:16:34;;;;;;;12.53;3.03;;;;;;;5.47;89.97;100760.09;5055988;28;20640;-68
2024/01/23 04:19:02;;;;;;;12.20;3.47;;;;;;;5.48;90.11;100763.59;5056238;28;20220;-68
2024/01/23 04:21:31;;;;;;;12.33;2.83;;;;;;;5.49;89.78;100766.13;5056160;28;20210;-68
2024/01/23 04:24:00;;;;;;;12.73;3.30;;;;;;;5.49;89.75;100783.84;5056248;28;20233;-68
2024/01/23 04:26:30;;;;;;;15.43;3.20;;;;;;;5.48;90.75;100785.66;5055845;28;20688;-68
2024/01/23 04:28:58;;;;;;;12.97;3.30;;;;;;;5.50;89.75;100799.69;5056043;28;20245;-68
2024/01/23 04:31:27;;;;;;;15.03;3.03;;;;;;;5.49;90.20;100792.66;5055985;28;20296;-68
2024/01/23 04:33:57;;;;;;;14.63;3.57;;;;;;;5.52;90.06;100803.03;5055954;28;20230;-68
2024/01/23 04:36:26;;;;;;;16.37;3.70;;;;;;;5.51;90.55;100800.53;5055537;28;20312;-68
2024/01/23 04:38:54;;;;;;;9.80;3.07;;;;;;;5.49;91.18;100811.25;5055908;28;20252;-68
2024/01/23 04:41:24;;;;;;;16.20;4.07;;;;;;;5.50;90.30;100812.94;5055831;28;20202;-68
2024/01/23 04:43:54;;;;;;;13.83;3.50;;;;;;;5.52;90.51;100816.31;5055675;28;20320;-68
2024/01/23 04:46:23;;;;;;;15.77;3.40;;;;;;;5.56;90.21;100825.72;5055781;28;20289;-68
2024/01/23 04:48:51;;;;;;;17.03;3.60;;;;;;;5.58;90.82;100823.75;5055685;28;20206;-68
2024/01/23 04:51:20;;;;;;;12.07;3.70;;;;;;;5.58;89.73;100837.03;5055871;28;20213;-68
2024/01/23 04:53:51;;;;;;;15.10;3.90;;;;;;;5.56;90.51;100846.97;5054786;28;20233;-68
2024/01/23 04:56:20;;;;;;;16.83;3.20;;;;;;;5.59;89.34;100846.72;5055613;28;20201;-68
2024/01/23 04:58:49;;;;;;;15.23;3.20;;;;;;;5.61;89.59;100850.09;5055216;28;20206;-68
2024/01/23 05:01:18;;;;;;;12.03;2.87;;;;;;;5.65;89.63;100861.28;5055468;28;20216;-68
2024/01/23 05:03:47;;;;;;;16.93;3.70;;;;;;;5.65;89.26;100860.47;5055256;28;20233;-68
2024/01/23 05:06:16;;;;;;;19.83;3.77;;;;;;;5.67;88.67;100858.50;5055372;28;20240;-68
2024/01/23 05:08:44;;;;;;;17.87;3.60;;;;;;;5.61;89.52;100876.66;5055311;28;20214;-68
2024/01/23 05:11:12;;;;;;;13.87;3.53;;;;;;;5.59;90.06;100872.41;5054986;28;20248;-68
2024/01/23 05:13:42;;;;;;;11.87;2.90;;;;;;;5.57;90.89;100890.31;5055183;28;20275;-68
2024/01/23 05:16:11;;;;;;;22.47;3.97;;;;;;;5.55;90.75;100890.41;5055176;28;20202;-68
2024/01/23 05:18:41;;;;;;;17.10;3.47;;;;;;;5.57;90.63;100906.25;5054801;28;20210;-68
2024/01/23 05:21:10;;;;;;;14.07;3.43;;;;;;;5.57;90.57;100917.72;5054743;28;20652;-68
2024/01/23 05:23:40;;;;;;;13.10;3.23;;;;;;;5.57;90.62;100933.66;5054655;28;20632;-68
2024/01/23 05:26:08;;;;;;;15.30;3.50;;;;;;;5.57;89.57;100933.66;5054934;28;20221;-68
2024/01/23 05:28:37;;;;;;;14.37;3.10;;;;;;;5.55;90.39;100927.59;5054911;28;20210;-68
2024/01/23 05:31:06;;;;;;;19.43;3.43;;;;;;;5.55;90.72;100932.06;5054916;28;20271;-68
2024/01/23 05:33:35;;;;;;;10.53;3.10;;;;;;;5.55;90.36;100935.56;5054765;28;20252;-68
2024/01/23 05:36:06;;;;;;;15.33;3.30;;;;;;;5.55;89.91;100935.56;5054721;28;20309;-68
2024/01/23 05:38:34;;;;;;;20.60;4.00;;;;;;;5.56;89.90;100939.91;5054820;28;20195;-69
2024/01/23 05:41:04;;;;;;;19.67;4.03;;;;;;;5.55;89.90;100932.91;5054722;28;20309;-69
2024/01/23 05:43:33;;;;;;;19.57;3.60;;;;;;;5.55;90.25;100935.56;5054576;28;20228;-69
2024/01/23 05:46:02;;;;;;;19.70;3.37;;;;;;;5.55;90.13;100950.66;5054775;28;20313;-69
2024/01/23 05:48:30;;;;;;;16.37;3.47;;;;;;;5.56;89.47;100953.19;5054526;28;20202;-70
2024/01/23 05:50:59;;;;;;;15.20;3.20;;;;;;;5.53;90.52;100961.41;5054516;28;20213;-70
2024/01/23 05:53:29;;;;;;;12.13;3.60;;;;;;;5.52;90.76;100967.69;5054106;28;20719;-74
2024/01/23 05:55:57;;;;;;;13.97;3.53;;;;;;;5.52;90.92;100967.69;5054410;28;20212;-70
2024/01/23 05:58:26;;;;;;;14.53;2.97;;;;;;;5.53;90.38;100973.84;5054374;28;20206;-70
2024/01/23 06:00:54;;;;;;;12.87;3.33;;;;;;;5.55;89.67;100975.41;5054308;28;20202;-70
2024/01/23 06:03:23;;;;;;;17.20;3.53;;;;;;;5.54;90.51;100980.84;5054089;28;20280;-70
2024/01/23 06:05:51;;;;;;;20.83;4.23;;;;;;;5.54;90.68;100992.31;5054100;28;20229;-70
2024/01/23 06:08:20;;;;;;;12.63;3.50;;;;;;;5.53;90.97;100998.59;5054181;28;20202;-70
2024/01/23 06:10:49;;;;;;;17.27;3.90;;;;;;;5.54;91.28;100997.63;5053835;28;20657;-70
2024/01/23 06:13:18;;;;;;;19.57;4.20;;;;;;;5.52;93.23;101004.84;5053997;28;20257;-70
2024/01/23 06:15:46;;;;;;;14.00;3.83;;;;;;;5.50;94.39;101006.81;5053726;28;20664;-70
2024/01/23 06:18:15;;;;;;;21.13;4.07;;;;;;;5.48;95.20;101011.38;5054023;28;20213;-70
2024/01/23 06:20:44;;;;;;;21.03;3.97;;;;;;;5.46;94.96;101025.75;5053932;28;20202;-70
2024/01/23 06:23:12;;;;;;;18.23;4.20;;;;;;;5.47;93.89;101038.06;5053525;28;20663;-70
2024/01/23 06:25:40;;;;;;;21.67;4.20;;;;;;;5.45;93.85;101043.47;5053788;28;20229;-70
2024/01/23 06:28:10;;;;;;;22.63;4.60;;;;;;;5.44;94.41;101039.16;5053849;28;20253;-70
2024/01/23 06:30:39;;;;;;;18.83;5.33;;;;;;;5.47;93.41;101048.69;5053797;28;20209;-70
2024/01/23 06:33:07;;;;;;;24.30;4.70;;;;;;;5.48;93.38;101048.53;5053715;28;20234;-70
2024/01/23 06:35:36;;;;;;;15.93;3.70;;;;;;;5.48;93.58;101048.53;5053463;28;20241;-70
2024/01/23 06:38:05;;;;;;;11.60;3.90;;;;;;;5.50;92.81;101049.28;5053704;28;20228;-70
2024/01/23 06:40:33;;;;;;;15.43;3.70;;;;;;;5.52;93.11;101055.31;5053353;28;20210;-70
2024/01/23 06:43:01;;;;;;;26.57;4.60;;;;;;;5.49;93.67;101052.06;5053476;28;20232;-70
2024/01/23 06:45:31;;;;;;;22.63;4.73;;;;;;;5.49;93.26;101062.69;5053492;28;20329;-70
2024/01/23 06:48:00;;;;;;;17.57;4.27;;;;;;;5.50;92.68;101067.03;5052186;28;20679;-70
2024/01/23 06:50:30;;;;;;;17.77;4.23;;;;;;;5.50;92.70;101075.84;5053485;28;20221;-70
2024/01/23 06:52:58;;;;;;;20.10;4.10;;;;;;;5.52;92.47;101084.53;5053070;28;20757;-70
2024/01/23 06:55:26;;;;;;;20.37;4.23;;;;;;;5.51;92.42;101082.81;5053417;28;20209;-70
2024/01/23 06:57:55;;;;;;;19.63;3.83;;;;;;;5.48;93.02;101084.91;5053345;28;20327;-71
2024/01/23 07:00:23;;;;;;;13.47;3.37;;;;;;;5.51;92.24;101088.13;5053356;28;20206;-71
2024/01/23 07:02:53;;;;;;;16.17;3.70;;;;;;;5.51;92.89;101096.09;5053471;28;20226;-71
2024/01/23 07:05:22;;;;;;;17.40;4.10;;;;;;;5.53;92.74;101103.97;5053225;28;20595;-70
2024/01/23 07:07:51;;;;;;;18.03;3.97;;;;;;;5.52;94.48;101097.81;5052950;28;20668;-70
2024/01/23 07:10:19;;;;;;;16.53;3.63;;;;;;;5.48;96.08;101104.31;5053228;28;20210;-70
2024/01/23 07:12:48;;;;;;;16.57;4.40;;;;;;;5.46;97.22;101119.53;5053172;28;20225;-71
2024/01/23 07:15:16;;;;;;;20.93;4.10;;;;;;;5.44;98.46;101121.47;5053174;28;20750;-71
2024/01/23 07:17:45;;;;;;;18.10;3.80;;;;;;;5.41;98.97;101127.00;5057319;28;20205;-71
2024/01/23 07:20:15;;;;;;;18.43;3.93;;;;;;;5.40;98.76;101132.44;5057338;28;20205;-71
2024/01/23 07:22:44;;;;;;;16.17;3.83;;;;;;;5.37;99.47;101133.53;5057214;28;20261;-71
2024/01/23 07:25:13;;;;;;;21.87;4.67;;;;;;;5.36;99.48;101145.09;5057158;28;20289;-71
2024/01/23 07:27:41;;;;;;;26.90;5.60;;;;;;;5.36;99.73;101153.06;5057170;28;20297;-71
2024/01/23 07:30:11;;;;;;;20.53;4.60;;;;;;;5.35;99.81;101155.81;5056748;28;20553;-70
2024/01/23 07:32:39;;;;;;;24.30;4.37;;;;;;;5.35;99.17;101154.03;5056943;28;20252;-70
2024/01/23 07:35:08;;;;;;;19.40;4.53;;;;;;;5.36;99.25;101153.06;5056856;28;20225;-70
2024/01/23 07:37:38;;;;;;;19.50;4.23;;;;;;;5.36;99.34;101158.38;5056987;28;20202;-70
2024/01/23 07:40:07;;;;;;;17.87;4.77;;;;;;;5.37;98.46;101168.03;5056942;28;20210;-71
2024/01/23 07:42:36;;;;;;;17.97;4.23;;;;;;;5.40;97.90;101175.78;5056858;28;20294;-71
2024/01/23 07:45:06;;;;;;;22.73;4.40;;;;;;;5.39;98.03;101171.41;5056835;28;20240;-70
2024/01/23 07:47:34;;;;;;;22.93;4.03;;;;;;;5.43;97.00;101178.19;5056788;28;20202;-71
2024/01/23 07:50:03;;;;;;;20.63;4.87;;;;;;;5.45;96.42;101183.38;5056724;28;20301;-71
2024/01/23 07:52:32;;;;;;;21.07;3.77;;;;;;;5.45;96.12;101184.22;5056334;28;20619;-70
2024/01/23 07:55:02;;;;;;;28.40;4.73;;;;;;;5.45;95.90;101189.53;5056706;28;20297;-70
2024/01/23 07:57:31;;;;;;;26.07;4.50;;;;;;;5.47;95.87;101208.88;5056682;28;20222;-70
2024/01/23 07:59:59;;;;;;;20.80;4.70;;;;;;;5.47;96.04;101203.56;5056546;28;20233;-70
2024/01/23 08:02:28;;;;;;;20.10;4.67;;;;;;;5.50;95.13;101216.59;5056136;28;20214;-70
2024/01/23 08:04:57;;;;;;;19.10;4.97;;;;;;;5.52;95.55;101219.97;5056502;28;20202;-70
2024/01/23 08:07:26;;;;;;;18.50;4.57;;;;;;;5.54;94.87;101219.88;5057201;28;20230;-70
2024/01/23 08:09:54;;;;;;;22.50;4.90;;;;;;;5.52;95.77;101221.78;5056320;28;20658;-70
2024/01/23 08:12:24;;;;;;;20.60;4.63;;;;;;;5.54;95.47;101230.50;5056292;28;20237;-70
2024/01/23 08:14:52;;;;;;;27.87;4.57;;;;;;;5.55;95.15;101230.34;5055970;28;20210;-71
2024/01/23 08:17:21;;;;;;;20.47;4.60;;;;;;;5.56;95.43;101237.38;5055923;28;20297;-70
2024/01/23 08:19:50;;;;;;;17.73;4.33;;;;;;;5.56;95.47;101249.81;5056194;28;20206;-70
2024/01/23 08:22:18;;;;;;;19.63;4.57;;;;;;;5.58;95.49;101242.59;5056173;28;20214;-70
2024/01/23 08:24:47;;;;;;;22.13;5.00;;;;;;;5.59;95.07;101255.72;5055746;28;20272;-70
2024/01/23 08:27:16;;;;;;;20.53;5.13;;;;;;;5.60;94.91;101262.75;5054599;28;20233;-70
2024/01/23 08:29:46;;;;;;;32.07;4.97;;;;;;;5.60;95.75;101273.38;5056033;28;20252;-70
2024/01/23 08:32:14;;;;;;;21.20;4.63;;;;;;;5.59;96.30;101276.97;5055990;28;20279;-70
2024/01/23 08:34:43;;;;;;;20.63;4.63;;;;;;;5.60;96.79;101281.34;5055726;28;20241;-71
2024/01/23 08:37:14;;;;;;;22.97;4.87;;;;;;;5.59;96.73;101294.72;5056115;28;20187;-70
2024/01/23 08:39:43;;;;;;;20.10;4.40;;;;;;;5.60;96.23;101299.06;5055557;28;20595;-70
2024/01/23 08:42:11;;;;;;;24.37;4.93;;;;;;;5.60;96.43;101305.25;5055803;28;20236;-70
2024/01/23 08:44:40;;;;;;;20.27;4.70;;;;;;;5.62;96.50;101321.03;5055660;28;20226;-70
2024/01/23 08:47:10;;;;;;;26.47;5.70;;;;;;;5.65;96.29;101322.66;5055860;28;20320;-70
2024/01/23 08:49:38;;;;;;;24.50;5.07;;;;;;;5.65;96.06;101333.28;5055676;28;20210;-70
2024/01/23 08:52:07;;;;;;;23.37;4.60;;;;;;;5.63;96.85;101336.88;5055638;28;20210;-70
2024/01/23 08:54:36;;;;;;;19.87;4.47;;;;;;;5.62;97.66;101329.00;5055730;28;20272;-70
2024/01/23 08:57:05;;;;;;;23.13;5.50;;;;;;;5.64;97.95;101348.38;5055523;28;20237;-70
2024/01/23 08:59:37;;;;;;;23.97;5.20;;;;;;;5.62;98.68;101361.75;5055468;28;20213;-70
2024/01/23 09:02:05;;;;;;;20.93;4.70;;;;;;;5.60;99.15;101361.03;5055492;28;20236;-70
2024/01/23 09:04:35;;;;;;;24.07;6.27;;;;;;;5.62;99.09;101360.88;5055023;28;20313;-70
2024/01/23 09:07:04;;;;;;;23.20;5.03;;;;;;;5.61;99.18;101365.38;5055269;28;20317;-70
2024/01/23 09:09:32;;;;;;;21.77;5.00;;;;;;;5.61;99.38;101386.63;5054992;28;20206;-70
2024/01/23 09:12:01;;;;;;;22.10;4.87;;;;;;;5.63;100.00;101379.38;5054951;28;20206;-70
2024/01/23 09:14:30;;;;;;;21.20;4.43;;;;;;;5.61;100.00;101391.09;5055355;28;20229;-70
2024/01/23 09:16:58;;;;;;;22.90;4.60;;;;;;;5.60;100.00;101390.25;5054849;28;20747;-70
2024/01/23 09:19:28;;;;;;;22.10;4.90;;;;;;;5.62;100.00;101403.38;5055155;28;20209;-71
2024/01/23 09:21:57;;;;;;;18.37;4.40;;;;;;;5.61;100.00;101396.41;5055049;28;20210;-71
2024/01/23 09:24:26;;;;;;;24.10;5.03;;;;;;;5.59;100.00;101401.81;5055025;28;20226;-71
2024/01/23 09:26:59;;;;;;;29.43;5.73;;;;;;;5.62;100.00;101414.88;5054935;28;20236;-71
2024/01/23 09:29:28;;;;;;;20.37;4.80;;;;;;;5.63;100.00;101421.88;5054907;28;20285;-71
2024/01/23 09:31:58;;;;;;;15.93;4.10;;;;;;;5.66;99.71;101422.59;5054561;28;20256;-71
2024/01/23 09:34:26;;;;;;;26.67;5.27;;;;;;;5.68;100.00;101418.06;5054592;28;20268;-71
2024/01/23 09:36:56;;;;;;;20.37;4.97;;;;;;;5.68;99.60;101428.69;5054799;28;20186;-71
2024/01/23 09:39:25;;;;;;;24.37;5.70;;;;;;;5.69;99.99;101425.03;5054257;28;20256;-71
2024/01/23 09:41:56;;;;;;;21.67;4.63;;;;;;;5.70;98.99;101422.28;5054541;28;20668;-71
2024/01/23 09:44:25;;;;;;;23.60;4.97;;;;;;;5.72;99.53;101427.50;5054629;28;20254;-71
2024/01/23 09:46:54;;;;;;;26.93;4.93;;;;;;;5.73;99.34;101429.16;5054604;28;20312;-71
2024/01/23 09:49:23;;;;;;;23.73;5.07;;;;;;;5.74;99.76;101430.88;5054554;28;20228;-71
2024/01/23 09:51:55;;;;;;;21.10;4.90;;;;;;;5.75;99.64;101445.88;5054495;28;20288;-71
2024/01/23 09:54:25;;;;;;;22.90;4.63;;;;;;;5.77;99.55;101444.78;5054225;28;20320;-71
2024/01/23 09:56:53;;;;;;;21.10;5.13;;;;;;;5.83;97.88;101448.78;5054411;28;20210;-71
2024/01/23 09:59:22;;;;;;;17.60;5.43;;;;;;;5.82;98.94;101452.44;5054343;28;20206;-71
2024/01/23 10:01:50;;;;;;;30.50;5.57;;;;;;;5.83;98.41;101451.44;5054308;28;20216;-71
2024/01/23 10:04:21;;;;;;;20.50;5.63;;;;;;;5.83;98.34;101454.09;5054031;28;20712;-71
2024/01/23 10:06:50;;;;;;;24.13;5.10;;;;;;;5.86;98.57;101456.56;5054727;28;20590;-71
2024/01/23 10:09:18;;;;;;;26.43;5.23;;;;;;;5.86;97.51;101456.56;5054152;28;20206;-71
2024/01/23 10:11:48;;;;;;;28.73;5.57;;;;;;;5.88;97.54;101463.50;5054158;28;20214;-71
2024/01/23 10:14:17;;;;;;;28.13;5.33;;;;;;;5.88;97.72;101468.81;5054117;28;20292;-71
2024/01/23 10:16:48;;;;;;;27.97;5.30;;;;;;;5.93;97.01;101460.47;5054086;28;20308;-71
2024/01/23 10:19:18;;;;;;;26.03;5.07;;;;;;;5.95;95.81;101475.38;5054081;28;20191;-71
2024/01/23 10:21:47;;;;;;;24.73;5.57;;;;;;;5.94;96.55;101473.66;5053996;28;20206;-71
2024/01/23 10:24:16;;;;;;;24.90;5.50;;;;;;;5.98;96.07;101480.44;5054049;28;20321;-71
2024/01/23 10:26:48;;;;;;;18.80;4.93;;;;;;;6.00;96.83;101472.34;5053788;28;20221;-71
2024/01/23 10:29:16;;;;;;;33.37;5.97;;;;;;;6.04;97.04;101473.81;5054140;28;20201;-71
2024/01/23 10:31:45;;;;;;;27.10;6.03;;;;;;;6.04;97.62;101485.31;5053902;28;20212;-71
2024/01/23 10:34:13;;;;;;;29.17;5.67;;;;;;;6.04;95.67;101489.78;5053660;28;20258;-71
2024/01/23 10:36:43;;;;;;;21.10;5.77;;;;;;;6.08;94.88;101485.94;5053349;28;20218;-71
2024/01/23 10:39:13;;;;;;;27.90;6.47;;;;;;;6.08;96.16;101491.25;5053635;28;20293;-71
2024/01/23 10:41:43;;;;;;;24.00;5.40;;;;;;;6.08;96.09;101492.09;5053651;28;20241;-71
2024/01/23 10:44:14;;;;;;;24.83;6.20;;;;;;;6.11;95.66;101483.03;5053248;28;20719;-71
2024/01/23 10:46:43;;;;;;;27.00;5.93;;;;;;;6.12;95.77;101484.75;5053842;28;20194;-71
2024/01/23 10:49:12;;;;;;;27.60;5.90;;;;;;;6.13;95.20;101483.75;5053504;28;20251;-71
2024/01/23 10:51:45;;;;;;;24.37;6.63;;;;;;;6.17;93.73;101481.72;5052777;28;20210;-71
2024/01/23 10:54:23;;;;;;;28.57;5.13;;;;;;;6.15;94.42;101484.53;5053173;28;20823;-71
2024/01/23 10:56:55;;;;;;;27.03;5.50;;;;;;;6.19;93.34;101480.69;5053446;28;20193;-71
2024/01/23 10:59:28;;;;;;;19.60;5.40;;;;;;;6.23;93.82;101468.84;5053454;28;20190;-71
2024/01/23 11:02:03;;;;;;;25.33;5.70;;;;;;;6.23;92.13;101484.81;5053457;28;20186;-71
2024/01/23 11:04:32;;;;;;;27.03;5.90;;;;;;;6.24;93.42;101470.53;5052989;28;20257;-71
2024/01/23 11:07:10;;;;;;;25.50;4.97;;;;;;;6.26;92.81;101476.59;5053328;28;20209;-71
2024/01/23 11:09:45;;;;;;;26.80;5.53;;;;;;;6.28;93.71;101474.66;5053812;28;20190;-71
2024/01/23 11:12:23;;;;;;;23.30;5.93;;;;;;;6.33;93.40;101464.53;5053371;28;20194;-71
2024/01/23 11:14:59;;;;;;;21.27;4.77;;;;;;;6.32;92.35;101478.78;5053257;28;20197;-71
2024/01/23 11:17:33;;;;;;;21.77;5.80;;;;;;;6.33;92.57;101477.84;5052945;28;20640;-71
2024/01/23 11:20:08;;;;;;;22.60;5.30;;;;;;;6.36;91.06;101474.94;5053207;28;20217;-71
2024/01/23 11:22:39;;;;;;;23.80;5.10;;;;;;;6.37;91.83;101487.25;5053163;28;20193;-71
2024/01/23 11:25:08;;;;;;;20.20;4.43;;;;;;;6.40;92.06;101480.88;5052869;28;20301;-71
2024/01/23 11:27:39;;;;;;;19.43;4.53;;;;;;;6.45;91.28;101476.91;5053022;28;20344;-71
2024/01/23 11:30:13;;;;;;;26.33;5.20;;;;;;;6.47;90.81;101487.44;5053066;28;20197;-70
2024/01/23 11:32:42;;;;;;;25.30;4.73;;;;;;;6.46;89.79;101483.94;5052792;28;20749;-70